createdAt,value
2019-04-21T00:03:09.773Z,7
2019-04-21T00:08:30.428Z,7
2019-04-21T00:13:17.533Z,9
2019-04-21T00:18:08.563Z,8
2019-04-21T00:23:21.279Z,7
2019-04-21T00:28:30.170Z,7
2019-04-21T00:33:13.747Z,6
2019-04-21T00:38:24.329Z,6
2019-04-21T00:43:23.212Z,6
2019-04-21T00:48:28.755Z,6
2019-04-21T00:53:35.226Z,7
2019-04-21T01:08:24.916Z,10
2019-04-21T01:13:40.887Z,7
2019-04-21T01:18:26.024Z,7
2019-04-21T01:23:06.404Z,7
2019-04-21T01:28:23.978Z,7
2019-04-21T01:33:25.827Z,7
2019-04-21T01:38:28.696Z,7
2019-04-21T01:43:23.162Z,7
2019-04-21T01:48:19.386Z,8
2019-04-21T01:53:30.446Z,7
2019-04-21T01:58:18.101Z,8
2019-04-21T02:03:40.484Z,7
2019-04-21T02:08:21.346Z,6
2019-04-21T02:13:21.229Z,7
2019-04-21T02:18:27.112Z,7
2019-04-21T02:23:37.653Z,7
2019-04-21T02:28:34.971Z,7
2019-04-21T02:33:45.500Z,8
2019-04-21T02:38:44.390Z,9
2019-04-21T02:43:32.674Z,12
2019-04-21T02:48:37.983Z,9
2019-04-21T02:58:41.354Z,9
2019-04-21T03:03:36.074Z,8
2019-04-21T03:13:38.967Z,8
2019-04-21T03:18:39.351Z,8
2019-04-21T03:23:45.762Z,8
2019-04-21T03:38:36.506Z,7
2019-04-21T03:43:34.341Z,9
2019-04-21T03:48:35.245Z,7
2019-04-21T03:58:46.196Z,7
2019-04-21T04:03:51.548Z,9
2019-04-21T04:08:49.546Z,8
2019-04-21T04:13:47.104Z,10
2019-04-21T04:18:45.871Z,9
2019-04-21T04:23:51.009Z,10
2019-04-21T04:33:48.105Z,7
2019-04-21T04:43:54.235Z,8
2019-04-21T04:48:34.716Z,9
2019-04-21T04:58:59.230Z,9
2019-04-21T05:08:52.183Z,11
2019-04-21T05:13:32.982Z,9
2019-04-21T05:18:43.320Z,11
2019-04-21T05:23:24.184Z,11
2019-04-21T05:28:18.366Z,11
2019-04-21T05:33:31.992Z,11
2019-04-21T05:38:21.199Z,11
2019-04-21T05:43:21.157Z,11
2019-04-21T05:48:28.061Z,11
2019-04-21T05:53:29.251Z,11
2019-04-21T05:58:26.988Z,11
2019-04-21T06:03:30.488Z,11
2019-04-21T06:13:34.609Z,11
2019-04-21T06:18:34.308Z,11
2019-04-21T06:23:29.790Z,10
2019-04-21T06:28:33.253Z,11
2019-04-21T06:33:44.271Z,10
2019-04-21T06:38:42.968Z,10
2019-04-21T06:43:32.793Z,10
2019-04-21T06:48:32.506Z,10
2019-04-21T06:53:37.401Z,12
2019-04-21T06:58:24.837Z,10
2019-04-21T07:03:34.434Z,12
2019-04-21T07:13:24.869Z,11
2019-04-21T07:18:34.147Z,11
2019-04-21T07:23:30.109Z,11
2019-04-21T07:28:31.361Z,10
2019-04-21T07:33:48.961Z,9
2019-04-21T07:38:26.722Z,9
2019-04-21T07:43:20.161Z,10
2019-04-21T07:48:24.406Z,10
2019-04-21T07:58:26.005Z,11
2019-04-21T08:03:26.321Z,10
2019-04-21T08:08:20.594Z,9
2019-04-21T08:13:34.005Z,9
2019-04-21T08:18:26.561Z,9
2019-04-21T08:23:25.217Z,9
2019-04-21T08:28:25.768Z,9
2019-04-21T08:33:31.757Z,10
2019-04-21T08:38:27.469Z,10
2019-04-21T08:43:35.373Z,9
2019-04-21T08:48:22.089Z,9
2019-04-21T08:53:24.440Z,9
2019-04-21T08:58:28.641Z,9
2019-04-21T09:03:28.079Z,9
2019-04-21T09:08:24.646Z,9
2019-04-21T09:13:22.303Z,8
2019-04-21T09:18:18.358Z,9
2019-04-21T09:23:25.378Z,8
2019-04-21T09:28:19.674Z,9
2019-04-21T09:33:07.381Z,9
2019-04-21T09:38:15.865Z,11
2019-04-21T09:43:09.509Z,20
2019-04-21T09:48:11.383Z,10
2019-04-21T09:53:16.599Z,8
2019-04-21T09:58:13.339Z,8
2019-04-21T10:03:08.697Z,7
2019-04-21T10:08:05.942Z,8
2019-04-21T10:13:06.973Z,7
2019-04-21T10:18:06.341Z,6
2019-04-21T10:23:07.049Z,8
2019-04-21T10:28:05.843Z,7
2019-04-21T10:33:06.127Z,7
2019-04-21T10:38:16.701Z,8
2019-04-21T10:43:07.510Z,7
2019-04-21T10:48:07.018Z,7
2019-04-21T10:53:06.960Z,8
2019-04-21T10:58:06.488Z,9
2019-04-21T11:03:06.584Z,8
2019-04-21T11:08:15.271Z,8
2019-04-21T11:13:05.859Z,7
2019-04-21T11:18:06.122Z,7
2019-04-21T11:23:06.039Z,7
2019-04-21T11:28:07.018Z,7
2019-04-21T11:33:06.981Z,7
2019-04-21T11:38:13.349Z,8
2019-04-21T11:43:05.964Z,9
2019-04-21T11:48:06.116Z,7
2019-04-21T11:53:07.014Z,7
2019-04-21T11:58:05.906Z,7
2019-04-21T12:03:05.868Z,7
2019-04-21T12:08:17.515Z,7
2019-04-21T12:13:07.364Z,5
2019-04-21T12:18:06.039Z,6
2019-04-21T12:23:06.677Z,5
2019-04-21T12:28:05.906Z,5
2019-04-21T12:33:06.094Z,6
2019-04-21T12:38:06.702Z,5
2019-04-21T12:43:06.417Z,6
2019-04-21T12:48:06.150Z,5
2019-04-21T12:53:05.885Z,4
2019-04-21T12:58:05.889Z,7
2019-04-21T13:03:05.889Z,6
2019-04-21T13:08:07.068Z,6
2019-04-21T13:13:05.969Z,6
2019-04-21T13:18:05.891Z,5
2019-04-21T13:23:05.990Z,4
2019-04-21T13:28:06.932Z,4
2019-04-21T13:33:07.103Z,4
2019-04-21T13:38:12.078Z,4
2019-04-21T13:43:07.870Z,5
2019-04-21T13:48:06.534Z,5
2019-04-21T13:53:06.832Z,5
2019-04-21T13:58:06.332Z,5
2019-04-21T14:03:07.069Z,4
2019-04-21T14:08:07.357Z,5
2019-04-21T14:13:06.648Z,6
2019-04-21T14:18:06.812Z,5
2019-04-21T14:23:15.340Z,5
2019-04-21T14:28:06.132Z,5
2019-04-21T14:33:05.893Z,5
2019-04-21T14:38:06.926Z,4
2019-04-21T14:43:05.981Z,4
2019-04-21T14:48:07.136Z,5
2019-04-21T14:53:05.904Z,5
2019-04-21T14:58:07.241Z,5
2019-04-21T15:03:05.901Z,5
2019-04-21T15:08:06.850Z,5
2019-04-21T15:13:05.913Z,4
2019-04-21T15:18:05.918Z,5
2019-04-21T15:23:06.236Z,5
2019-04-21T15:28:05.900Z,4
2019-04-21T15:33:06.448Z,4
2019-04-21T15:38:05.911Z,4
2019-04-21T15:43:06.438Z,4
2019-04-21T15:48:05.909Z,3
2019-04-21T15:53:05.910Z,4
2019-04-21T15:58:06.809Z,3
2019-04-21T16:03:06.743Z,4
2019-04-21T16:08:05.993Z,3
2019-04-21T16:13:05.913Z,3
2019-04-21T16:18:05.917Z,4
2019-04-21T16:23:06.488Z,3
2019-04-21T16:28:05.912Z,2
2019-04-21T16:33:06.069Z,3
2019-04-21T16:38:06.148Z,3
2019-04-21T16:43:06.007Z,3
2019-04-21T16:48:07.062Z,4
2019-04-21T16:53:06.072Z,3
2019-04-21T16:58:12.567Z,3
2019-04-21T17:03:06.358Z,2
2019-04-21T17:08:06.081Z,3
2019-04-21T17:13:06.255Z,4
2019-04-21T17:18:22.328Z,3
2019-04-21T17:23:07.121Z,4
2019-04-21T17:28:06.052Z,3
2019-04-21T17:33:09.967Z,6
2019-04-21T17:38:05.953Z,22
2019-04-21T17:43:10.446Z,22
2019-04-21T17:48:10.426Z,11
2019-04-21T17:53:10.242Z,6
2019-04-21T17:58:20.545Z,3
2019-04-21T18:03:29.406Z,4
2019-04-21T18:08:22.750Z,4
2019-04-21T18:13:11.962Z,4
2019-04-21T18:18:05.933Z,4
2019-04-21T18:23:07.364Z,4
2019-04-21T18:28:05.947Z,4
2019-04-21T18:33:12.859Z,3
2019-04-21T18:38:11.294Z,4
2019-04-21T18:43:41.930Z,4
2019-04-21T18:48:18.867Z,3
2019-04-21T18:53:16.447Z,4
2019-04-21T18:58:07.024Z,4
2019-04-21T19:03:09.664Z,4
2019-04-21T19:08:18.630Z,3
2019-04-21T19:13:27.625Z,4
2019-04-21T19:18:45.554Z,4
2019-04-21T19:23:33.426Z,4
2019-04-21T19:28:21.342Z,4
2019-04-21T19:33:18.580Z,4
2019-04-21T19:38:08.870Z,4
2019-04-21T19:43:22.923Z,4
2019-04-21T19:48:23.641Z,4
2019-04-21T19:53:21.026Z,4
2019-04-21T19:58:07.136Z,4
2019-04-21T20:03:06.280Z,13
2019-04-21T20:08:20.410Z,4
2019-04-21T20:13:34.843Z,4
2019-04-21T20:18:17.473Z,5
2019-04-21T20:23:13.000Z,4
2019-04-21T20:28:11.821Z,4
2019-04-21T20:38:18.894Z,4
2019-04-21T20:43:30.475Z,3
2019-04-21T20:48:15.874Z,4
2019-04-21T20:53:19.453Z,3
2019-04-21T20:58:16.305Z,4
2019-04-21T21:03:24.132Z,4
2019-04-21T21:13:30.929Z,4
2019-04-21T21:18:37.765Z,4
2019-04-21T21:23:17.835Z,5
2019-04-21T21:28:22.449Z,4
2019-04-21T21:33:16.806Z,4
2019-04-21T21:38:25.160Z,4
2019-04-21T21:43:08.049Z,4
2019-04-21T21:48:21.591Z,5
2019-04-21T21:53:13.316Z,4
2019-04-21T21:58:07.996Z,4
2019-04-21T22:03:14.653Z,4
2019-04-21T22:08:06.789Z,4
2019-04-21T22:13:09.398Z,4
2019-04-21T22:18:24.018Z,4
2019-04-21T22:23:11.171Z,4
2019-04-21T22:28:07.109Z,4
2019-04-21T22:33:08.851Z,6
2019-04-21T22:38:18.918Z,5
2019-04-21T22:43:16.682Z,6
2019-04-21T22:48:12.328Z,7
2019-04-21T22:53:08.339Z,7
2019-04-21T22:58:07.451Z,6
2019-04-21T23:03:10.517Z,8
2019-04-21T23:08:07.087Z,7
2019-04-21T23:13:11.138Z,8
2019-04-21T23:18:23.221Z,7
2019-04-21T23:23:28.227Z,8
2019-04-21T23:28:20.732Z,8
2019-04-21T23:33:10.027Z,8
2019-04-21T23:38:08.355Z,7
2019-04-21T23:43:11.017Z,6
2019-04-21T23:48:18.176Z,6
2019-04-21T23:53:06.055Z,6
2019-04-21T23:58:12.302Z,6
